createdAt,value
2019-05-12T00:01:42.429Z,3.33
2019-05-12T00:04:14.367Z,3.97
2019-05-12T00:06:47.892Z,3.40
2019-05-12T00:09:19.780Z,4.40
2019-05-12T00:11:51.748Z,5.00
2019-05-12T00:14:23.448Z,3.57
2019-05-12T00:16:55.327Z,3.50
2019-05-12T00:19:28.523Z,4.40
2019-05-12T00:22:00.978Z,4.60
2019-05-12T00:24:32.703Z,3.90
2019-05-12T00:27:08.486Z,4.47
2019-05-12T00:29:40.619Z,4.80
2019-05-12T00:32:12.498Z,4.10
2019-05-12T00:34:44.194Z,4.33
2019-05-12T00:37:18.027Z,4.50
2019-05-12T00:39:49.603Z,4.10
2019-05-12T00:42:21.351Z,4.47
2019-05-12T00:44:53.005Z,4.37
2019-05-12T00:47:24.844Z,4.37
2019-05-12T00:49:58.339Z,4.13
2019-05-12T00:52:30.128Z,4.10
2019-05-12T00:55:01.802Z,3.57
2019-05-12T00:57:33.462Z,3.67
2019-05-12T01:00:05.815Z,3.83
2019-05-12T01:02:38.063Z,4.10
2019-05-12T01:05:10.039Z,4.00
2019-05-12T01:07:41.972Z,4.03
2019-05-12T01:10:13.785Z,4.47
2019-05-12T01:12:45.856Z,4.30
2019-05-12T01:15:17.895Z,4.80
2019-05-12T01:17:50.130Z,5.20
2019-05-12T01:20:22.004Z,4.97
2019-05-12T01:22:53.800Z,5.27
2019-05-12T01:25:25.967Z,5.40
2019-05-12T01:27:58.896Z,5.45
2019-05-12T01:30:31.094Z,5.10
2019-05-12T01:33:03.334Z,4.57
2019-05-12T01:35:35.382Z,5.20
2019-05-12T01:38:08.089Z,5.47
2019-05-12T01:40:40.095Z,5.90
2019-05-12T01:43:12.029Z,5.60
2019-05-12T01:45:43.910Z,6.10
2019-05-12T01:48:17.901Z,6.37
2019-05-12T01:50:49.757Z,6.50
2019-05-12T01:53:21.571Z,6.80
2019-05-12T01:55:53.272Z,7.37
2019-05-12T01:58:27.636Z,6.80
2019-05-12T02:00:59.065Z,5.70
2019-05-12T02:03:30.755Z,5.73
2019-05-12T02:06:03.449Z,6.10
2019-05-12T02:08:41.223Z,5.93
2019-05-12T02:11:30.462Z,5.77
2019-05-12T02:14:03.753Z,5.17
2019-05-12T02:16:35.528Z,5.42
2019-05-12T02:19:09.015Z,4.83
2019-05-12T02:21:41.120Z,4.13
2019-05-12T02:24:26.398Z,4.47
2019-05-12T02:26:48.512Z,4.40
2019-05-12T02:29:19.474Z,5.07
2019-05-12T02:31:51.155Z,5.37
2019-05-12T02:34:25.383Z,5.70
2019-05-12T02:36:56.600Z,5.60
2019-05-12T02:39:28.282Z,5.80
2019-05-12T02:42:00.004Z,7.20
2019-05-12T02:44:34.565Z,6.33
2019-05-12T02:47:05.351Z,6.80
2019-05-12T02:49:37.052Z,6.90
2019-05-12T02:52:10.424Z,6.30
2019-05-12T02:54:54.430Z,6.20
2019-05-12T02:57:17.246Z,6.13
2019-05-12T02:59:50.532Z,5.47
2019-05-12T03:02:24.507Z,6.30
2019-05-12T03:04:56.933Z,5.65
2019-05-12T03:07:30.212Z,6.23
2019-05-12T03:10:05.144Z,6.70
2019-05-12T03:12:37.225Z,6.70
2019-05-12T03:15:09.046Z,6.13
2019-05-12T03:17:40.818Z,6.87
2019-05-12T03:20:15.428Z,7.50
2019-05-12T03:22:46.012Z,7.00
2019-05-12T03:25:24.512Z,6.97
2019-05-12T03:27:54.308Z,6.77
2019-05-12T03:30:28.953Z,7.20
2019-05-12T03:32:58.833Z,7.40
2019-05-12T03:35:35.322Z,7.70
2019-05-12T03:38:04.496Z,7.37
2019-05-12T03:40:38.637Z,7.60
2019-05-12T03:43:10.251Z,7.37
2019-05-12T03:45:44.995Z,7.43
2019-05-12T03:48:15.481Z,7.00
2019-05-12T03:50:48.331Z,8.07
2019-05-12T03:53:20.310Z,7.50
2019-05-12T03:55:55.063Z,7.17
2019-05-12T03:58:25.853Z,8.10
2019-05-12T04:00:57.671Z,7.80
2019-05-12T04:03:29.324Z,7.60
2019-05-12T04:06:04.288Z,6.60
2019-05-12T04:08:34.933Z,8.25
2019-05-12T04:11:07.252Z,8.00
2019-05-12T04:13:39.128Z,7.47
2019-05-12T04:16:10.975Z,7.92
2019-05-12T04:18:45.019Z,7.17
2019-05-12T04:21:16.082Z,8.07
2019-05-12T04:23:47.909Z,7.33
2019-05-12T04:26:19.608Z,7.47
2019-05-12T04:28:54.630Z,6.90
2019-05-12T04:31:25.156Z,8.53
2019-05-12T04:33:56.984Z,6.87
2019-05-12T04:36:28.680Z,7.20
2019-05-12T04:39:00.411Z,6.67
2019-05-12T04:41:35.102Z,7.83
2019-05-12T04:44:06.288Z,7.30
2019-05-12T04:46:38.354Z,8.40
2019-05-12T04:49:10.053Z,7.87
2019-05-12T04:51:44.952Z,10.30
2019-05-12T04:54:15.686Z,8.10
2019-05-12T04:56:47.403Z,7.20
2019-05-12T04:59:19.046Z,6.70
2019-05-12T05:01:53.907Z,7.70
2019-05-12T05:04:24.642Z,6.50
2019-05-12T05:06:56.577Z,7.43
2019-05-12T05:09:28.269Z,8.20
2019-05-12T05:12:00.000Z,7.20
2019-05-12T05:14:34.033Z,6.50
2019-05-12T05:17:05.900Z,7.07
2019-05-12T05:19:38.068Z,6.63
2019-05-12T05:22:09.836Z,6.60
2019-05-12T05:24:41.530Z,6.13
2019-05-12T05:27:13.403Z,5.87
2019-05-12T05:29:45.516Z,6.80
2019-05-12T05:32:17.267Z,6.50
2019-05-12T05:34:55.874Z,6.70
2019-05-12T05:37:23.950Z,7.05
2019-05-12T05:39:55.773Z,7.13
2019-05-12T05:42:32.614Z,6.17
2019-05-12T05:45:01.024Z,6.60
2019-05-12T05:47:33.635Z,7.10
2019-05-12T05:50:06.402Z,6.13
2019-05-12T05:52:38.892Z,7.17
2019-05-12T05:55:19.919Z,5.67
2019-05-12T05:57:45.225Z,5.90
2019-05-12T06:00:23.007Z,6.13
2019-05-12T06:02:54.551Z,5.67
2019-05-12T06:05:30.694Z,6.27
2019-05-12T06:07:59.570Z,5.40
2019-05-12T06:10:36.242Z,5.60
2019-05-12T06:13:04.817Z,6.20
2019-05-12T06:15:40.550Z,5.80
2019-05-12T06:18:10.237Z,6.07
2019-05-12T06:20:43.709Z,12.50
2019-05-12T06:23:15.581Z,8.83
2019-05-12T06:25:51.568Z,7.47
2019-05-12T06:28:20.851Z,4.67
2019-05-12T06:30:54.892Z,3.80
2019-05-12T06:33:31.615Z,4.03
2019-05-12T06:35:59.731Z,3.70
2019-05-12T06:38:37.112Z,5.05
2019-05-12T06:41:05.238Z,4.73
2019-05-12T06:43:39.529Z,3.97
2019-05-12T06:46:11.839Z,3.70
2019-05-12T06:48:45.591Z,3.93
2019-05-12T06:51:22.747Z,3.80
2019-05-12T06:53:53.314Z,3.72
2019-05-12T06:56:24.482Z,3.33
2019-05-12T06:58:56.175Z,4.23
2019-05-12T07:01:27.903Z,3.40
2019-05-12T07:04:05.681Z,3.42
2019-05-12T07:06:34.184Z,3.40
2019-05-12T07:09:09.840Z,3.47
2019-05-12T07:11:48.162Z,3.93
2019-05-12T07:14:22.384Z,3.20
2019-05-12T07:17:01.174Z,4.50
2019-05-12T07:19:26.117Z,3.80
2019-05-12T07:22:00.192Z,4.20
2019-05-12T07:24:34.044Z,3.30
2019-05-12T07:27:09.090Z,2.75
2019-05-12T07:29:39.420Z,3.55
2019-05-12T07:32:16.387Z,3.20
2019-05-12T07:34:44.843Z,3.30
2019-05-12T07:37:18.088Z,3.73
2019-05-12T07:39:53.844Z,3.40
2019-05-12T07:42:31.579Z,4.13
2019-05-12T07:45:04.341Z,3.50
2019-05-12T07:47:36.166Z,3.20
2019-05-12T07:50:09.990Z,3.20
2019-05-12T07:52:44.040Z,3.00
2019-05-12T07:55:15.150Z,2.97
2019-05-12T07:57:55.450Z,3.50
2019-05-12T08:00:21.536Z,2.73
2019-05-12T08:02:54.097Z,3.00
2019-05-12T08:05:26.120Z,2.70
2019-05-12T08:08:00.690Z,3.20
2019-05-12T08:10:33.996Z,3.67
2019-05-12T08:13:05.048Z,3.53
2019-05-12T08:15:39.834Z,3.80
2019-05-12T08:18:10.443Z,3.70
2019-05-12T08:20:43.617Z,3.40
2019-05-12T08:23:15.809Z,3.10
2019-05-12T08:25:47.830Z,3.97
2019-05-12T08:28:27.838Z,3.35
2019-05-12T08:30:54.818Z,2.83
2019-05-12T08:33:26.861Z,3.60
2019-05-12T08:36:05.564Z,3.13
2019-05-12T08:38:33.684Z,5.67
2019-05-12T08:41:05.501Z,3.80
2019-05-12T08:43:40.680Z,3.60
2019-05-12T08:46:12.899Z,3.60
2019-05-12T08:48:44.765Z,3.07
2019-05-12T08:51:19.784Z,3.80
2019-05-12T08:53:56.146Z,3.80
2019-05-12T08:56:26.230Z,4.63
2019-05-12T08:58:57.953Z,3.90
2019-05-12T09:01:30.877Z,3.90
2019-05-12T09:04:06.502Z,3.83
2019-05-12T09:06:38.304Z,3.37
2019-05-12T09:09:10.703Z,3.10
2019-05-12T09:11:44.081Z,3.30
2019-05-12T09:14:18.378Z,3.50
2019-05-12T09:16:55.931Z,2.67
2019-05-12T09:19:27.225Z,3.10
2019-05-12T09:21:58.707Z,3.37
2019-05-12T09:24:30.617Z,3.60
2019-05-12T09:27:06.934Z,2.63
2019-05-12T09:29:36.018Z,3.30
2019-05-12T09:32:09.637Z,3.00
2019-05-12T09:34:46.898Z,4.13
2019-05-12T09:37:14.863Z,3.53
2019-05-12T09:39:47.806Z,3.35
2019-05-12T09:42:25.636Z,2.87
2019-05-12T09:44:54.089Z,2.97
2019-05-12T09:47:27.741Z,3.35
2019-05-12T09:49:59.332Z,3.30
2019-05-12T09:52:33.387Z,3.53
2019-05-12T09:55:05.313Z,5.50
2019-05-12T09:57:40.770Z,3.67
2019-05-12T10:00:13.737Z,3.67
2019-05-12T10:02:45.167Z,3.27
2019-05-12T10:05:17.071Z,3.10
2019-05-12T10:07:49.274Z,4.00
2019-05-12T10:10:24.168Z,3.70
2019-05-12T10:12:55.516Z,3.50
2019-05-12T10:15:28.791Z,2.93
2019-05-12T10:18:08.914Z,3.47
2019-05-12T10:20:37.484Z,3.03
2019-05-12T10:23:10.185Z,3.23
2019-05-12T10:25:41.375Z,3.57
2019-05-12T10:28:16.083Z,3.93
2019-05-12T10:30:52.079Z,4.40
2019-05-12T10:33:20.485Z,5.13
2019-05-12T10:35:54.198Z,4.10
2019-05-12T10:38:25.774Z,3.57
2019-05-12T10:40:57.900Z,3.43
2019-05-12T10:43:29.812Z,3.97
2019-05-12T10:46:04.040Z,3.50
2019-05-12T10:48:35.108Z,3.30
2019-05-12T10:51:07.709Z,3.15
2019-05-12T10:53:39.461Z,3.10
2019-05-12T10:56:11.564Z,4.62
2019-05-12T10:58:44.012Z,3.50
2019-05-12T11:01:15.937Z,3.17
2019-05-12T11:03:50.963Z,4.93
2019-05-12T11:06:23.862Z,4.10
2019-05-12T11:08:54.640Z,3.27
2019-05-12T11:11:26.548Z,3.33
2019-05-12T11:13:59.744Z,2.87
2019-05-12T11:16:32.953Z,2.80
2019-05-12T11:19:10.222Z,3.50
2019-05-12T11:21:38.752Z,3.10
2019-05-12T11:24:10.486Z,2.90
2019-05-12T11:26:43.270Z,3.20
2019-05-12T11:29:15.425Z,3.20
2019-05-12T11:31:47.460Z,3.30
2019-05-12T11:34:19.297Z,3.00
2019-05-12T11:36:54.564Z,3.80
2019-05-12T11:39:30.699Z,3.10
2019-05-12T11:41:59.957Z,3.10
2019-05-12T11:44:33.688Z,2.83
2019-05-12T11:47:05.449Z,3.90
2019-05-12T11:49:37.178Z,2.70
2019-05-12T11:52:16.721Z,2.90
2019-05-12T11:54:47.139Z,2.97
2019-05-12T11:57:20.072Z,3.12
2019-05-12T11:59:59.160Z,2.40
2019-05-12T12:02:30.272Z,2.70
2019-05-12T12:04:59.208Z,2.70
2019-05-12T12:07:33.309Z,3.30
2019-05-12T12:10:05.523Z,3.00
2019-05-12T12:12:39.581Z,2.90
2019-05-12T12:15:13.667Z,3.70
2019-05-12T12:17:45.074Z,3.03
2019-05-12T12:20:22.483Z,2.80
2019-05-12T12:22:54.307Z,3.15
2019-05-12T12:25:29.739Z,2.87
2019-05-12T12:28:01.498Z,2.70
2019-05-12T12:30:34.045Z,2.97
2019-05-12T12:33:06.057Z,2.77
2019-05-12T12:35:44.316Z,2.53
2019-05-12T12:38:16.390Z,2.55
2019-05-12T12:40:53.552Z,3.00
2019-05-12T12:43:25.677Z,2.70
2019-05-12T12:46:10.568Z,2.40
2019-05-12T12:48:39.249Z,2.70
2019-05-12T12:51:11.355Z,2.42
2019-05-12T12:53:43.776Z,2.53
2019-05-12T12:56:24.338Z,2.67
2019-05-12T12:58:49.277Z,2.37
2019-05-12T13:01:27.205Z,2.20
2019-05-12T13:03:59.368Z,2.10
2019-05-12T13:06:28.315Z,2.53
2019-05-12T13:09:00.077Z,2.60
2019-05-12T13:11:34.859Z,2.67
2019-05-12T13:14:06.468Z,3.00
2019-05-12T13:16:38.337Z,2.77
2019-05-12T13:19:13.188Z,2.40
2019-05-12T13:21:43.949Z,2.57
2019-05-12T13:24:15.964Z,2.90
2019-05-12T13:26:47.681Z,3.00
2019-05-12T13:29:19.875Z,2.40
2019-05-12T13:31:53.760Z,2.80
2019-05-12T13:34:32.194Z,2.80
2019-05-12T13:36:58.865Z,2.70
2019-05-12T13:39:30.565Z,2.37
2019-05-12T13:42:03.203Z,2.20
2019-05-12T13:44:38.712Z,2.53
2019-05-12T13:47:08.600Z,3.40
2019-05-12T13:49:44.574Z,2.70
2019-05-12T13:52:14.033Z,2.60
2019-05-12T13:54:45.765Z,2.50
2019-05-12T13:57:18.151Z,2.60
2019-05-12T13:59:55.837Z,2.53
2019-05-12T14:02:23.908Z,2.83
2019-05-12T14:05:00.512Z,2.27
2019-05-12T14:07:29.226Z,2.30
2019-05-12T14:10:03.451Z,2.40
2019-05-12T14:12:34.582Z,2.63
2019-05-12T14:15:07.584Z,3.10
2019-05-12T14:17:40.544Z,2.67
2019-05-12T14:20:15.721Z,2.20
2019-05-12T14:22:46.052Z,2.33
2019-05-12T14:25:20.945Z,2.43
2019-05-12T14:27:53.414Z,2.60
2019-05-12T14:30:25.248Z,2.25
2019-05-12T14:32:59.248Z,2.03
2019-05-12T14:35:32.620Z,2.37
2019-05-12T14:38:04.399Z,1.90
2019-05-12T14:40:36.199Z,2.20
2019-05-12T14:43:10.336Z,2.20
2019-05-12T14:45:43.949Z,3.80
2019-05-12T14:48:16.031Z,2.75
2019-05-12T14:50:48.008Z,2.03
2019-05-12T14:53:20.282Z,3.20
2019-05-12T14:55:53.511Z,2.10
2019-05-12T14:58:26.492Z,2.43
2019-05-12T15:00:58.876Z,2.50
2019-05-12T15:03:30.589Z,2.40
2019-05-12T15:06:03.791Z,2.20
2019-05-12T15:08:40.230Z,2.80
2019-05-12T15:11:10.255Z,4.13
2019-05-12T15:13:43.641Z,3.60
2019-05-12T15:16:16.819Z,2.13
2019-05-12T15:18:50.136Z,3.53
2019-05-12T15:21:27.350Z,2.17
2019-05-12T15:23:55.975Z,2.60
2019-05-12T15:26:27.966Z,3.30
2019-05-12T15:29:05.394Z,3.37
2019-05-12T15:31:33.773Z,3.03
2019-05-12T15:34:05.569Z,2.27
2019-05-12T15:36:37.746Z,1.90
2019-05-12T15:39:10.030Z,2.10
2019-05-12T15:41:41.775Z,1.97
2019-05-12T15:44:14.509Z,1.77
2019-05-12T15:46:46.817Z,2.13
2019-05-12T15:49:18.575Z,2.00
2019-05-12T15:51:55.349Z,2.60
2019-05-12T15:54:24.381Z,2.83
2019-05-12T15:56:56.237Z,3.20
2019-05-12T15:59:28.089Z,3.00
2019-05-12T16:02:11.775Z,2.30
2019-05-12T16:04:34.732Z,2.85
2019-05-12T16:07:07.613Z,2.40
2019-05-12T16:09:39.371Z,1.77
2019-05-12T16:12:19.992Z,1.90
2019-05-12T16:14:44.817Z,2.40
2019-05-12T16:17:24.825Z,2.47
2019-05-12T16:19:50.246Z,4.50
2019-05-12T16:22:23.250Z,5.87
2019-05-12T16:24:55.158Z,3.65
2019-05-12T16:27:33.130Z,2.30
2019-05-12T16:30:00.634Z,2.10
2019-05-12T16:32:39.157Z,2.30
2019-05-12T16:35:07.509Z,2.30
2019-05-12T16:37:40.045Z,1.90
2019-05-12T16:40:13.734Z,2.20
2019-05-12T16:42:52.724Z,1.67
2019-05-12T16:45:20.276Z,1.95
2019-05-12T16:47:53.608Z,1.67
2019-05-12T16:50:28.101Z,2.13
2019-05-12T16:53:00.253Z,2.20
2019-05-12T16:55:44.898Z,2.00
2019-05-12T16:58:05.805Z,2.23
2019-05-12T17:00:39.678Z,1.80
2019-05-12T17:03:11.395Z,1.80
2019-05-12T17:05:43.399Z,2.17
2019-05-12T17:08:15.236Z,2.10
2019-05-12T17:10:58.217Z,2.27
2019-05-12T17:13:23.573Z,2.33
2019-05-12T17:15:59.838Z,1.93
2019-05-12T17:18:28.528Z,1.87
2019-05-12T17:21:04.052Z,1.77
2019-05-12T17:23:35.957Z,2.22
2019-05-12T17:26:08.163Z,1.43
2019-05-12T17:28:40.562Z,1.90
2019-05-12T17:31:12.337Z,1.73
2019-05-12T17:33:44.433Z,1.60
2019-05-12T17:36:18.044Z,1.70
2019-05-12T17:38:51.128Z,1.80
2019-05-12T17:41:23.935Z,1.50
2019-05-12T17:44:01.221Z,1.87
2019-05-12T17:46:32.322Z,2.27
2019-05-12T17:49:04.090Z,1.80
2019-05-12T17:51:36.271Z,2.07
2019-05-12T17:54:13.540Z,1.60
2019-05-12T17:56:41.574Z,1.93
2019-05-12T17:59:17.048Z,2.30
2019-05-12T18:01:47.196Z,1.93
2019-05-12T18:04:20.318Z,2.10
2019-05-12T18:06:53.537Z,1.80
2019-05-12T18:09:25.386Z,2.23
2019-05-12T18:11:57.522Z,1.83
2019-05-12T18:14:29.518Z,2.50
2019-05-12T18:17:07.563Z,2.20
2019-05-12T18:19:35.797Z,2.77
2019-05-12T18:22:09.274Z,2.03
2019-05-12T18:24:49.296Z,2.10
2019-05-12T18:27:15.324Z,1.90
2019-05-12T18:29:47.611Z,2.20
2019-05-12T18:32:20.262Z,2.43
2019-05-12T18:34:53.920Z,2.23
2019-05-12T18:37:26.139Z,2.10
2019-05-12T18:39:58.030Z,1.60
2019-05-12T18:42:29.994Z,1.87
2019-05-12T18:45:11.669Z,1.80
2019-05-12T18:47:38.242Z,1.40
2019-05-12T18:50:10.539Z,1.77
2019-05-12T18:52:45.883Z,1.47
2019-05-12T18:55:17.495Z,1.70
2019-05-12T18:57:50.105Z,1.77
2019-05-12T19:00:23.722Z,1.60
2019-05-12T19:02:59.587Z,1.70
2019-05-12T19:05:31.528Z,1.35
2019-05-12T19:08:04.436Z,2.17
2019-05-12T19:10:38.631Z,2.13
2019-05-12T19:13:10.448Z,1.60
2019-05-12T19:15:44.155Z,2.47
2019-05-12T19:18:18.301Z,1.60
2019-05-12T19:20:50.379Z,1.40
2019-05-12T19:23:28.485Z,1.57
2019-05-12T19:25:56.122Z,1.80
2019-05-12T19:28:28.224Z,1.70
2019-05-12T19:31:05.085Z,1.53
2019-05-12T19:33:34.585Z,2.13
2019-05-12T19:36:07.980Z,1.67
2019-05-12T19:38:40.194Z,2.40
2019-05-12T19:41:13.926Z,2.13
2019-05-12T19:43:49.566Z,2.20
2019-05-12T19:46:19.409Z,2.30
2019-05-12T19:48:54.001Z,2.77
2019-05-12T19:51:28.249Z,1.83
2019-05-12T19:53:59.571Z,1.90
2019-05-12T19:56:35.754Z,1.80
2019-05-12T19:59:05.310Z,1.70
2019-05-12T20:01:37.235Z,1.67
2019-05-12T20:04:10.128Z,2.00
2019-05-12T20:06:43.974Z,1.63
2019-05-12T20:09:15.501Z,1.60
2019-05-12T20:11:47.259Z,1.77
2019-05-12T20:14:21.487Z,1.82
2019-05-12T20:16:54.435Z,2.57
2019-05-12T20:19:27.728Z,3.53
2019-05-12T20:21:59.856Z,2.70
2019-05-12T20:24:31.731Z,2.43
2019-05-12T20:27:04.100Z,2.80
2019-05-12T20:29:36.336Z,2.23
2019-05-12T20:32:08.333Z,2.50
2019-05-12T20:34:49.266Z,2.50
2019-05-12T20:37:16.858Z,3.23
2019-05-12T20:39:51.144Z,3.10
2019-05-12T20:42:23.812Z,2.67
2019-05-12T20:44:57.842Z,2.40
2019-05-12T20:47:29.480Z,2.17
2019-05-12T20:50:04.301Z,2.40
2019-05-12T20:52:39.476Z,2.10
2019-05-12T20:55:09.405Z,1.80
2019-05-12T20:57:51.897Z,1.73
2019-05-12T21:00:16.237Z,2.00
2019-05-12T21:02:48.074Z,1.60
2019-05-12T21:05:20.683Z,1.80
2019-05-12T21:07:55.641Z,1.60
2019-05-12T21:10:29.674Z,1.67
2019-05-12T21:12:59.725Z,1.97
2019-05-12T21:15:37.253Z,2.50
2019-05-12T21:18:07.495Z,2.90
2019-05-12T21:20:39.331Z,2.17
2019-05-12T21:23:13.413Z,2.30
2019-05-12T21:25:52.425Z,1.90
2019-05-12T21:28:18.350Z,1.70
2019-05-12T21:30:50.161Z,2.07
2019-05-12T21:33:24.053Z,2.13
2019-05-12T21:35:56.491Z,1.87
2019-05-12T21:38:29.714Z,1.73
2019-05-12T21:41:07.569Z,1.70
2019-05-12T21:43:35.823Z,2.33
2019-05-12T21:46:12.264Z,1.90
2019-05-12T21:48:41.103Z,2.13
2019-05-12T21:51:18.412Z,2.20
2019-05-12T21:53:50.631Z,1.83
2019-05-12T21:56:20.975Z,1.83
2019-05-12T21:58:56.516Z,1.77
2019-05-12T22:01:26.532Z,1.97
2019-05-12T22:04:02.375Z,1.80
2019-05-12T22:06:34.160Z,2.02
2019-05-12T22:09:07.510Z,2.40
2019-05-12T22:11:43.957Z,1.72
2019-05-12T22:14:13.739Z,2.20
2019-05-12T22:16:47.755Z,1.77
2019-05-12T22:19:19.582Z,2.37
2019-05-12T22:26:58.141Z,2.73
2019-05-12T22:29:31.443Z,4.17
2019-05-12T22:32:05.147Z,3.85
2019-05-12T22:34:41.843Z,2.50
2019-05-12T22:37:10.338Z,3.13
2019-05-12T22:39:44.404Z,2.00
2019-05-12T22:42:20.187Z,2.50
2019-05-12T22:44:55.333Z,2.13
2019-05-12T22:47:24.041Z,1.80
2019-05-12T22:49:57.115Z,1.90
2019-05-12T22:52:29.077Z,2.30
2019-05-12T22:55:03.387Z,2.10
2019-05-12T22:57:39.951Z,2.30
2019-05-12T23:00:13.471Z,2.20
2019-05-12T23:02:44.598Z,2.00
2019-05-12T23:05:20.341Z,2.50
2019-05-12T23:07:49.891Z,2.03
2019-05-12T23:10:21.820Z,2.30
2019-05-12T23:12:59.606Z,2.20
2019-05-12T23:15:27.083Z,2.13
2019-05-12T23:17:58.768Z,2.10
2019-05-12T23:20:33.327Z,2.20
2019-05-12T23:23:08.995Z,2.02
2019-05-12T23:25:39.054Z,1.63
2019-05-12T23:28:10.924Z,1.83
2019-05-12T23:30:48.409Z,2.07
2019-05-12T23:33:16.250Z,2.10
2019-05-12T23:35:48.070Z,1.83
2019-05-12T23:38:21.116Z,1.97
2019-05-12T23:40:53.792Z,1.83
2019-05-12T23:43:25.521Z,1.90
2019-05-12T23:45:57.282Z,2.03
2019-05-12T23:48:29.046Z,1.90
2019-05-12T23:51:03.816Z,2.43
2019-05-12T23:53:36.559Z,3.07
2019-05-12T23:56:08.582Z,2.27
2019-05-12T23:58:40.451Z,2.60
